Time;durP1;ratioP1;P1;durP2;ratioP2;P2;SDS_P1;SDS_P2;PMS_P1;PMS_P2;Temp;Humidity;BMP_temperature;BMP_pressure;BME280_temperature;BME280_humidity;BME280_pressure;Samples;Min_cycle;Max_cycle;Signal;HPM_P1;HPM_P2
2022/01/08 00:00:51;;;;;;;3.90;3.50;;;22.80;72.30;;;;;;6194194;28;89108;-67
2022/01/08 00:03:53;;;;;;;3.80;3.50;;;22.90;72.30;;;;;;6208451;28;89366;-67
2022/01/08 00:06:56;;;;;;;3.60;3.30;;;22.80;72.30;;;;;;6196700;28;89058;-67
2022/01/08 00:09:58;;;;;;;4.05;3.65;;;22.80;72.50;;;;;;6195581;28;88317;-67
2022/01/08 00:13:03;;;;;;;3.42;3.13;;;22.80;72.50;;;;;;6206793;28;89129;-67
2022/01/08 00:16:07;;;;;;;4.32;3.47;;;22.70;72.40;;;;;;6230529;28;89246;-67
2022/01/08 00:19:09;;;;;;;3.85;3.17;;;22.70;72.40;;;;;;6197407;28;90004;-68
2022/01/08 00:22:12;;;;;;;3.42;3.13;;;22.70;72.40;;;;;;6208081;28;89505;-67
2022/01/08 00:25:14;;;;;;;4.35;3.00;;;22.70;71.70;;;;;;6207469;28;89034;-68
2022/01/08 00:28:16;;;;;;;3.95;3.55;;;22.70;71.60;;;;;;6209859;28;89080;-67
2022/01/08 00:31:19;;;;;;;6.10;3.25;;;22.60;71.80;;;;;;6218089;28;88960;-67
2022/01/08 00:34:21;;;;;;;3.33;3.03;;;22.60;72.00;;;;;;6205244;28;89069;-67
2022/01/08 00:37:23;;;;;;;3.50;3.20;;;22.60;72.10;;;;;;6210875;28;89012;-67
2022/01/08 00:40:26;;;;;;;4.88;3.45;;;22.60;72.20;;;;;;6218305;28;88381;-67
2022/01/08 00:43:28;;;;;;;3.72;3.00;;;22.60;72.30;;;;;;6209328;28;89188;-67
2022/01/08 00:46:31;;;;;;;3.60;3.22;;;22.60;72.30;;;;;;6184966;28;89196;-67
2022/01/08 00:49:33;;;;;;;3.47;3.17;;;22.60;72.30;;;;;;6190205;28;90021;-67
2022/01/08 00:52:36;;;;;;;3.30;3.00;;;22.50;72.30;;;;;;6205589;28;89063;-67
2022/01/08 00:55:38;;;;;;;3.35;3.05;;;22.60;72.40;;;;;;6192040;28;89109;-67
2022/01/08 00:58:40;;;;;;;4.65;3.13;;;22.50;72.30;;;;;;6194698;28;89423;-67
2022/01/08 01:01:43;;;;;;;3.55;3.10;;;22.50;72.40;;;;;;6211543;28;88003;-67
2022/01/08 01:04:45;;;;;;;4.25;2.90;;;22.50;72.30;;;;;;6202775;28;88958;-67
2022/01/08 01:07:47;;;;;;;4.15;2.63;;;22.50;72.30;;;;;;6202447;28;89202;-68
2022/01/08 01:10:49;;;;;;;3.50;3.00;;;22.50;72.30;;;;;;6206499;28;88334;-67
2022/01/08 01:13:51;;;;;;;3.20;2.90;;;22.50;72.40;;;;;;6210738;28;89011;-68
2022/01/08 01:16:55;;;;;;;3.13;2.83;;;22.50;72.30;;;;;;6213464;28;89379;-67
2022/01/08 01:19:57;;;;;;;3.05;2.75;;;22.40;72.30;;;;;;6198493;28;88860;-67
2022/01/08 01:23:05;;;;;;;3.42;3.00;;;22.40;72.30;;;;;;6204246;28;89100;-67
2022/01/08 01:26:12;;;;;;;3.08;2.78;;;22.40;72.30;;;;;;6196010;28;89051;-67
2022/01/08 01:29:34;;;;;;;3.22;2.92;;;22.40;72.30;;;;;;6201126;28;89500;-67
2022/01/08 01:43:04;;;;;;;3.17;2.70;;;22.40;72.30;;;;;;6219256;28;87112;-68
2022/01/08 01:49:26;;;;;;;3.40;2.70;;;22.30;72.30;;;;;;6211615;28;87839;-67
2022/01/08 01:52:28;;;;;;;3.13;2.53;;;22.40;72.30;;;;;;6205322;28;90023;-68
2022/01/08 01:55:30;;;;;;;2.80;2.60;;;22.30;72.30;;;;;;6195866;28;89069;-68
2022/01/08 01:58:32;;;;;;;2.75;2.50;;;22.30;72.30;;;;;;6192316;28;89134;-67
2022/01/08 02:01:35;;;;;;;3.90;2.75;;;22.30;72.30;;;;;;6201524;28;88229;-66
2022/01/08 02:04:38;;;;;;;3.53;2.83;;;22.30;72.40;;;;;;6210084;28;89070;-67
2022/01/08 02:07:40;;;;;;;2.80;2.60;;;22.30;72.30;;;;;;6196872;28;88279;-67
2022/01/08 02:10:43;;;;;;;3.05;2.60;;;22.30;72.40;;;;;;6184939;28;89154;-67
2022/01/08 02:13:45;;;;;;;3.63;2.80;;;22.30;72.50;;;;;;6214232;28;88746;-67
2022/01/08 02:16:47;;;;;;;2.63;2.30;;;22.20;72.40;;;;;;6229100;28;89433;-67
2022/01/08 02:19:53;;;;;;;2.75;2.35;;;22.20;72.50;;;;;;6216880;28;88361;-68
2022/01/08 02:22:55;;;;;;;2.95;2.60;;;22.20;72.50;;;;;;6207880;28;89913;-67
2022/01/08 02:26:03;;;;;;;2.85;2.40;;;22.20;72.50;;;;;;6206470;28;89035;-67
2022/01/08 02:29:05;;;;;;;3.10;2.50;;;22.20;72.50;;;;;;6199166;28;88114;-66
2022/01/08 02:32:10;;;;;;;4.90;2.60;;;22.20;72.40;;;;;;6208926;28;89113;-67
2022/01/08 02:35:16;;;;;;;2.63;2.42;;;22.20;72.40;;;;;;6208954;28;87962;-67
2022/01/08 02:38:18;;;;;;;2.78;2.20;;;22.20;72.40;;;;;;6197300;28;88060;-67
2022/01/08 02:41:20;;;;;;;2.90;2.40;;;22.20;72.50;;;;;;6205148;28;89027;-67
2022/01/08 02:44:23;;;;;;;2.50;2.30;;;22.20;72.40;;;;;;6197625;28;87363;-67
2022/01/08 02:47:25;;;;;;;2.47;2.28;;;22.20;72.40;;;;;;6187499;28;89073;-68
2022/01/08 02:50:29;;;;;;;2.85;2.08;;;22.10;72.30;;;;;;6204513;28;88667;-68
2022/01/08 02:53:31;;;;;;;2.72;2.30;;;22.10;72.40;;;;;;6208608;28;90010;-67
2022/01/08 02:56:33;;;;;;;2.40;2.20;;;22.10;72.30;;;;;;6224036;28;89072;-67
2022/01/08 02:59:35;;;;;;;3.45;2.42;;;22.10;72.40;;;;;;6208162;28;89046;-68
2022/01/08 03:02:41;;;;;;;2.40;2.20;;;22.10;72.40;;;;;;6202502;28;88683;-67
2022/01/08 03:05:45;;;;;;;2.83;2.20;;;22.10;72.30;;;;;;6185043;28;89430;-67
2022/01/08 03:08:47;;;;;;;2.67;2.28;;;22.10;72.40;;;;;;6208933;28;87926;-68
2022/01/08 03:11:49;;;;;;;2.85;2.22;;;22.00;72.40;;;;;;6195285;28;89025;-67
2022/01/08 03:14:51;;;;;;;2.47;2.10;;;22.10;72.50;;;;;;6197013;28;87579;-67
2022/01/08 03:17:53;;;;;;;2.40;2.13;;;22.00;72.50;;;;;;6208834;28;89162;-67
2022/01/08 03:21:02;;;;;;;2.10;1.90;;;22.00;72.50;;;;;;6220281;28;89277;-67
2022/01/08 03:24:06;;;;;;;2.75;2.20;;;22.00;72.40;;;;;;6195367;28;90037;-67
2022/01/08 03:27:09;;;;;;;2.30;1.90;;;22.00;72.40;;;;;;6208206;28;88983;-67
2022/01/08 03:30:13;;;;;;;2.80;2.10;;;22.00;72.40;;;;;;6222704;28;89388;-67
2022/01/08 03:33:15;;;;;;;2.55;2.10;;;22.00;72.30;;;;;;6207338;28;89381;-67
2022/01/08 03:36:21;;;;;;;2.33;1.90;;;22.00;72.30;;;;;;6217704;28;87953;-66
2022/01/08 03:39:23;;;;;;;2.20;2.00;;;22.00;72.30;;;;;;6207753;28;89027;-67
2022/01/08 03:42:25;;;;;;;3.10;1.90;;;22.00;72.30;;;;;;6208346;28;89534;-67
2022/01/08 03:45:27;;;;;;;1.98;1.63;;;22.00;72.30;;;;;;6203387;28;88536;-67
2022/01/08 03:48:32;;;;;;;3.58;2.28;;;22.00;72.30;;;;;;6185223;28;89122;-67
2022/01/08 03:51:37;;;;;;;2.08;1.90;;;22.00;72.30;;;;;;6196037;28;89297;-67
2022/01/08 03:54:39;;;;;;;2.92;1.98;;;22.00;72.30;;;;;;6197788;28;89913;-67
2022/01/08 03:57:41;;;;;;;2.20;1.95;;;22.00;72.30;;;;;;6220356;28;88997;-67
2022/01/08 04:00:43;;;;;;;2.53;2.10;;;22.00;72.30;;;;;;6220554;28;89135;-68
2022/01/08 04:03:46;;;;;;;2.33;2.05;;;22.00;72.40;;;;;;6206195;28;88981;-66
2022/01/08 04:06:49;;;;;;;2.60;2.17;;;21.90;72.30;;;;;;6206725;28;89063;-68
2022/01/08 04:09:51;;;;;;;2.83;2.20;;;21.90;72.30;;;;;;6213867;28;89122;-67
2022/01/08 04:12:56;;;;;;;2.50;2.20;;;21.90;72.30;;;;;;6212480;28;89024;-67
2022/01/08 04:16:06;;;;;;;2.55;2.35;;;21.90;72.30;;;;;;6208427;28;88713;-67
2022/01/08 04:19:09;;;;;;;2.97;2.22;;;21.90;72.40;;;;;;6206179;28;89251;-68
2022/01/08 04:22:13;;;;;;;3.33;2.50;;;21.90;72.40;;;;;;6193951;28;89301;-67
2022/01/08 04:25:16;;;;;;;3.30;2.72;;;21.90;72.30;;;;;;6214679;28;89808;-68
2022/01/08 04:28:19;;;;;;;3.75;2.90;;;21.90;72.20;;;;;;6218977;28;88976;-67
2022/01/08 04:31:21;;;;;;;3.20;2.53;;;21.90;72.20;;;;;;6207003;28;89137;-67
2022/01/08 04:34:23;;;;;;;3.38;3.00;;;21.90;72.20;;;;;;6192520;28;87908;-68
2022/01/08 04:37:26;;;;;;;4.15;3.40;;;21.90;72.20;;;;;;6222775;28;89007;-67
2022/01/08 04:40:29;;;;;;;3.75;3.38;;;22.00;72.10;;;;;;6204862;28;89465;-67
2022/01/08 04:43:31;;;;;;;3.65;3.30;;;22.00;72.00;;;;;;6207576;28;89053;-67
2022/01/08 04:46:33;;;;;;;4.30;3.90;;;22.00;72.00;;;;;;6195127;28;88390;-67
2022/01/08 04:49:35;;;;;;;4.20;3.80;;;22.00;72.00;;;;;;6183660;28;89133;-67
2022/01/08 04:52:39;;;;;;;4.50;4.10;;;22.00;72.00;;;;;;6210186;28;88274;-68
2022/01/08 04:55:41;;;;;;;4.60;4.07;;;22.00;71.90;;;;;;6197212;28;90001;-67
2022/01/08 04:58:43;;;;;;;5.10;4.30;;;22.10;72.00;;;;;;6209288;28;89073;-68
2022/01/08 05:01:45;;;;;;;4.60;4.20;;;22.10;71.90;;;;;;6208978;28;89054;-68
2022/01/08 05:04:47;;;;;;;5.20;4.70;;;22.10;71.80;;;;;;6207596;28;89035;-68
2022/01/08 05:07:51;;;;;;;5.30;4.60;;;22.00;71.80;;;;;;6194370;28;89311;-68
2022/01/08 05:10:53;;;;;;;5.47;4.97;;;22.10;71.80;;;;;;6191082;28;89139;-68
2022/01/08 05:13:55;;;;;;;5.35;4.60;;;22.10;71.70;;;;;;6204394;28;89113;-68
2022/01/08 05:16:59;;;;;;;6.07;4.88;;;22.10;71.60;;;;;;6214964;28;88498;-67
2022/01/08 05:20:04;;;;;;;5.97;5.32;;;22.20;71.60;;;;;;6213474;28;89060;-68
2022/01/08 05:23:08;;;;;;;6.03;5.43;;;22.20;71.50;;;;;;6219510;28;89446;-67
2022/01/08 05:26:10;;;;;;;5.93;5.32;;;22.20;71.50;;;;;;6207876;28;89908;-68
2022/01/08 05:29:13;;;;;;;6.63;5.60;;;22.20;71.40;;;;;;6206897;28;89017;-67
2022/01/08 05:32:17;;;;;;;6.20;5.60;;;22.30;71.50;;;;;;6226830;28;89059;-68
2022/01/08 05:35:19;;;;;;;6.20;5.57;;;22.20;71.30;;;;;;6194236;28;89427;-67
2022/01/08 05:38:22;;;;;;;6.13;5.53;;;22.20;71.40;;;;;;6216030;28;89050;-68
2022/01/08 05:41:24;;;;;;;6.57;5.85;;;22.20;71.40;;;;;;6196078;28;89073;-68
2022/01/08 05:44:26;;;;;;;6.13;5.53;;;22.20;71.50;;;;;;6203432;28;89072;-67
2022/01/08 05:47:32;;;;;;;6.40;5.80;;;22.20;71.50;;;;;;6210668;28;88296;-68
2022/01/08 05:50:34;;;;;;;6.75;6.07;;;22.20;71.50;;;;;;6222325;28;89001;-67
2022/01/08 05:53:37;;;;;;;6.68;5.97;;;22.20;71.50;;;;;;6212541;28;88880;-67
2022/01/08 05:56:39;;;;;;;7.85;6.43;;;22.20;71.50;;;;;;6212790;28;90059;-67
2022/01/08 05:59:41;;;;;;;6.70;6.00;;;22.10;71.50;;;;;;6206962;28;89144;-67
2022/01/08 06:02:43;;;;;;;6.32;5.72;;;22.10;71.50;;;;;;6229705;28;89059;-67
2022/01/08 06:05:46;;;;;;;6.90;6.22;;;22.10;71.50;;;;;;6205011;28;89105;-67
2022/01/08 06:08:49;;;;;;;6.53;5.72;;;22.10;71.50;;;;;;6213761;28;89061;-67
2022/01/08 06:11:51;;;;;;;6.97;6.28;;;22.10;71.50;;;;;;6220735;28;89045;-67
2022/01/08 06:14:53;;;;;;;6.85;6.15;;;22.00;71.50;;;;;;6221721;28;89362;-66
2022/01/08 06:17:55;;;;;;;7.93;6.63;;;22.00;71.50;;;;;;6226970;28;88295;-68
2022/01/08 06:20:59;;;;;;;6.47;5.88;;;22.00;71.50;;;;;;6197091;28;89071;-67
2022/01/08 06:24:02;;;;;;;6.78;6.10;;;22.00;71.50;;;;;;6221744;28;88258;-67
2022/01/08 06:27:05;;;;;;;6.97;6.28;;;22.00;71.50;;;;;;6210422;28;90028;-67
2022/01/08 06:30:08;;;;;;;6.70;6.10;;;22.00;71.50;;;;;;6200253;28;89029;-67
2022/01/08 06:33:10;;;;;;;7.13;6.30;;;22.00;71.50;;;;;;6196973;28;89234;-67
2022/01/08 06:36:13;;;;;;;6.40;5.80;;;22.00;71.30;;;;;;6209078;28;89013;-67
2022/01/08 06:39:17;;;;;;;6.65;6.03;;;22.00;71.30;;;;;;6218195;28;89314;-68
2022/01/08 06:42:19;;;;;;;6.80;6.07;;;22.10;71.50;;;;;;6221833;28;89303;-68
2022/01/08 06:45:21;;;;;;;6.95;6.25;;;22.10;71.40;;;;;;6197086;28;89031;-68
2022/01/08 06:48:23;;;;;;;6.75;6.13;;;22.00;71.30;;;;;;6212478;28;88672;-68
2022/01/08 06:51:25;;;;;;;6.38;5.78;;;22.00;71.30;;;;;;6233689;28;88278;-68
2022/01/08 06:54:28;;;;;;;6.72;6.03;;;22.00;71.30;;;;;;6215983;28;89398;-68
2022/01/08 06:57:30;;;;;;;6.72;6.05;;;22.00;71.30;;;;;;6197065;28;89012;-68
2022/01/08 07:00:32;;;;;;;6.40;5.80;;;22.10;71.30;;;;;;6182579;28;89105;-68
2022/01/08 07:03:34;;;;;;;6.57;5.97;;;22.10;71.30;;;;;;6198189;28;89100;-68
2022/01/08 07:06:36;;;;;;;6.45;5.85;;;22.10;71.30;;;;;;6204347;28;89018;-67
2022/01/08 07:09:40;;;;;;;6.28;5.68;;;22.10;71.20;;;;;;6194095;28;89106;-68
2022/01/08 07:12:42;;;;;;;6.80;6.03;;;22.10;71.20;;;;;;6200894;28;89109;-68
2022/01/08 07:15:44;;;;;;;6.22;5.63;;;22.10;71.00;;;;;;6190129;28;89197;-67
2022/01/08 07:18:46;;;;;;;6.57;5.97;;;22.20;71.00;;;;;;6192952;28;87495;-69
2022/01/08 07:21:48;;;;;;;5.95;5.43;;;22.20;70.80;;;;;;6183907;28;87972;-68
2022/01/08 07:24:51;;;;;;;5.90;5.30;;;22.30;71.00;;;;;;6191386;28;88299;-68
2022/01/08 07:27:54;;;;;;;5.50;5.00;;;22.30;71.00;;;;;;6201395;28;90138;-67
2022/01/08 07:30:55;;;;;;;6.30;5.70;;;22.30;71.00;;;;;;6223621;28;87962;-68
2022/01/08 07:33:57;;;;;;;6.40;5.80;;;22.30;70.80;;;;;;6183116;28;89021;-68
2022/01/08 07:37:00;;;;;;;5.88;5.28;;;22.40;71.00;;;;;;6200347;28;89051;-69
2022/01/08 07:40:04;;;;;;;5.93;5.30;;;22.40;70.90;;;;;;6209536;28;88035;-69
2022/01/08 07:43:06;;;;;;;6.40;5.55;;;22.50;70.80;;;;;;6209803;28;89480;-69
2022/01/08 07:46:08;;;;;;;6.07;5.47;;;22.50;70.80;;;;;;6205504;28;89130;-68
2022/01/08 07:49:10;;;;;;;5.90;5.30;;;22.50;70.60;;;;;;6193663;28;88362;-70
2022/01/08 07:52:12;;;;;;;5.60;5.10;;;22.50;69.80;;;;;;6198593;28;88086;-69
2022/01/08 07:55:15;;;;;;;5.35;4.85;;;22.50;68.90;;;;;;6192128;28;89109;-69
2022/01/08 07:58:20;;;;;;;5.30;4.80;;;22.50;69.20;;;;;;6185163;28;89859;-68
2022/01/08 08:01:22;;;;;;;5.32;4.82;;;22.60;69.40;;;;;;6218991;28;89081;-68
2022/01/08 08:04:24;;;;;;;5.40;4.88;;;22.50;69.40;;;;;;6181204;28;89398;-68
2022/01/08 08:07:28;;;;;;;4.82;4.43;;;22.60;69.50;;;;;;6197191;28;89028;-69
2022/01/08 08:10:32;;;;;;;5.00;4.53;;;22.60;69.50;;;;;;6190105;28;89255;-70
2022/01/08 08:13:34;;;;;;;5.15;4.65;;;22.70;69.60;;;;;;6185483;28;89094;-68
2022/01/08 08:16:36;;;;;;;5.10;4.70;;;22.60;69.50;;;;;;6203415;28;89057;-68
2022/01/08 08:19:38;;;;;;;4.93;4.45;;;22.70;69.40;;;;;;6216979;28;88421;-68
2022/01/08 08:22:40;;;;;;;5.15;4.53;;;22.70;69.30;;;;;;6207431;28;89267;-70
2022/01/08 08:25:44;;;;;;;5.03;4.53;;;22.70;69.60;;;;;;6204911;28;87980;-70
2022/01/08 08:28:46;;;;;;;4.90;4.40;;;22.70;69.80;;;;;;6212178;28;88788;-69
2022/01/08 08:31:48;;;;;;;4.82;4.43;;;22.70;69.90;;;;;;6217757;28;89037;-70
2022/01/08 08:34:50;;;;;;;4.60;4.20;;;22.70;69.80;;;;;;6192679;28;88927;-69
2022/01/08 08:37:53;;;;;;;4.45;4.05;;;22.70;70.00;;;;;;6212438;28;89156;-69
2022/01/08 08:40:56;;;;;;;4.72;4.25;;;22.70;69.80;;;;;;6215376;28;89277;-69
2022/01/08 08:43:58;;;;;;;5.00;3.80;;;22.80;70.10;;;;;;6200193;28;89045;-68
2022/01/08 08:47:00;;;;;;;5.57;4.68;;;22.80;70.00;;;;;;6188760;28;89081;-69
2022/01/08 08:50:03;;;;;;;5.63;4.20;;;22.80;70.10;;;;;;6191038;28;88243;-71
2022/01/08 08:53:06;;;;;;;4.50;4.10;;;22.80;70.50;;;;;;6196335;28;89079;-69
2022/01/08 08:56:10;;;;;;;5.50;4.30;;;22.80;70.30;;;;;;6198687;28;89151;-71
2022/01/08 08:59:12;;;;;;;4.63;3.65;;;22.80;70.20;;;;;;6194934;28;89986;-71
2022/01/08 09:02:13;;;;;;;4.93;3.83;;;22.80;70.10;;;;;;6213630;28;88894;-70
2022/01/08 09:05:16;;;;;;;4.35;3.90;;;22.90;70.20;;;;;;6199483;28;89439;-71
2022/01/08 09:08:18;;;;;;;12.65;3.95;;;22.90;70.40;;;;;;6221059;28;91215;-70
2022/01/08 09:11:21;;;;;;;4.72;4.22;;;22.90;70.30;;;;;;6229199;28;89274;-71
2022/01/08 09:14:23;;;;;;;4.47;3.88;;;22.90;69.60;;;;;;6220690;28;89319;-71
2022/01/08 09:17:25;;;;;;;3.95;3.65;;;22.90;69.60;;;;;;6232123;28;89065;-71
2022/01/08 09:20:29;;;;;;;4.00;3.60;;;22.90;69.60;;;;;;6204757;28;88208;-71
2022/01/08 09:23:31;;;;;;;3.83;3.53;;;22.90;69.60;;;;;;6207716;28;89119;-70
2022/01/08 09:26:53;;;;;;;3.97;3.58;;;22.90;69.60;;;;;;6226506;28;89025;-71
2022/01/08 09:29:56;;;;;;;4.20;3.45;;;22.90;69.50;;;;;;6211562;28;90050;-70
2022/01/08 09:32:58;;;;;;;4.13;3.45;;;22.90;69.50;;;;;;6221772;28;89064;-72
2022/01/08 09:36:00;;;;;;;3.70;3.40;;;22.90;69.40;;;;;;6194830;28;89255;-71
2022/01/08 09:39:03;;;;;;;4.57;3.60;;;22.90;69.40;;;;;;6200989;28;87884;-71
2022/01/08 09:42:08;;;;;;;4.38;3.38;;;22.90;69.40;;;;;;6203516;28;88004;-71
2022/01/08 09:45:11;;;;;;;3.72;3.42;;;22.90;69.40;;;;;;6183574;28;89106;-70
2022/01/08 09:48:13;;;;;;;3.92;3.53;;;22.90;69.30;;;;;;6229986;28;89229;-71
2022/01/08 09:51:16;;;;;;;3.58;3.28;;;22.90;69.40;;;;;;6207012;28;88656;-70
2022/01/08 09:54:18;;;;;;;4.05;3.33;;;23.00;69.40;;;;;;6212982;28;89172;-70
2022/01/08 09:57:21;;;;;;;3.90;3.13;;;23.00;69.30;;;;;;6217547;28;89013;-68
2022/01/08 10:00:24;;;;;;;3.60;3.30;;;22.90;69.30;;;;;;6207624;28;89224;-70
2022/01/08 10:03:31;;;;;;;3.33;3.00;;;23.00;69.10;;;;;;6204049;28;89530;-70
2022/01/08 10:06:36;;;;;;;3.88;3.47;;;23.00;69.10;;;;;;6209180;28;88853;-70
2022/01/08 10:09:38;;;;;;;4.63;3.38;;;23.00;69.10;;;;;;6197601;28;89222;-69
2022/01/08 10:12:49;;;;;;;4.40;3.45;;;23.00;69.30;;;;;;6200206;28;89447;-70
2022/01/08 10:19:19;;;;;;;3.72;3.25;;;23.00;69.80;;;;;;6195017;28;88920;-70
2022/01/08 10:22:21;;;;;;;4.90;3.22;;;23.00;70.00;;;;;;6196161;28;88264;-69
2022/01/08 10:25:23;;;;;;;3.53;3.17;;;23.00;70.40;;;;;;6185867;28;89107;-70
2022/01/08 10:28:38;;;;;;;5.35;3.28;;;23.00;70.60;;;;;;6200791;28;89729;-68
2022/01/08 10:31:41;;;;;;;5.38;3.10;;;23.00;71.00;;;;;;6186376;28;90063;-69
2022/01/08 10:34:49;;;;;;;3.58;3.10;;;23.00;71.30;;;;;;6193394;28;89043;-68
2022/01/08 10:37:53;;;;;;;3.22;2.92;;;23.00;71.30;;;;;;6189474;28;89118;-69
2022/01/08 10:40:55;;;;;;;3.58;3.10;;;23.00;71.20;;;;;;6189349;28;89195;-69
2022/01/08 10:44:11;;;;;;;3.28;2.97;;;23.00;71.20;;;;;;6233549;28;89009;-68
2022/01/08 10:47:17;;;;;;;4.45;3.10;;;23.00;71.20;;;;;;6199280;28;89121;-68
2022/01/08 10:50:24;;;;;;;5.43;3.30;;;23.00;71.60;;;;;;6207050;28;90316;-68
2022/01/08 10:53:58;;;;;;;3.53;3.13;;;23.10;72.20;;;;;;6191569;28;89585;-68
2022/01/08 10:57:02;;;;;;;5.00;3.33;;;23.10;72.40;;;;;;6190144;28;89993;-69
2022/01/08 11:00:08;;;;;;;5.55;3.20;;;23.10;72.40;;;;;;6186174;28;89289;-69
2022/01/08 11:03:10;;;;;;;4.57;3.50;;;23.10;72.50;;;;;;6205388;28;90041;-69
2022/01/08 11:06:12;;;;;;;4.68;3.10;;;23.10;72.50;;;;;;6186647;28;89101;-68
2022/01/08 11:09:14;;;;;;;6.57;3.50;;;23.10;72.60;;;;;;6212344;28;89365;-69
2022/01/08 11:12:18;;;;;;;5.10;3.25;;;23.10;72.60;;;;;;6207275;28;88990;-69
2022/01/08 11:15:35;;;;;;;5.40;3.63;;;23.10;72.70;;;;;;6222150;28;89101;-68
2022/01/08 11:18:38;;;;;;;7.45;3.60;;;23.10;72.70;;;;;;6202620;28;89194;-69
2022/01/08 11:21:40;;;;;;;5.03;3.75;;;23.10;72.70;;;;;;6226397;28;87985;-69
2022/01/08 11:24:49;;;;;;;5.40;3.45;;;23.10;72.60;;;;;;6226708;28;88417;-70
2022/01/08 11:27:58;;;;;;;4.93;3.78;;;23.10;73.50;;;;;;6215014;28;89013;-68
2022/01/08 11:31:03;;;;;;;5.32;3.53;;;23.10;72.60;;;;;;6220462;28;89080;-69
2022/01/08 11:34:10;;;;;;;6.30;3.80;;;23.10;72.60;;;;;;6205134;28;90076;-69
2022/01/08 11:37:14;;;;;;;7.53;3.72;;;23.10;72.60;;;;;;6184462;28;89240;-69
2022/01/08 11:40:18;;;;;;;7.43;4.03;;;23.10;72.60;;;;;;6209322;28;87951;-69
2022/01/08 11:43:23;;;;;;;8.73;4.30;;;23.10;72.60;;;;;;6206579;28;89158;-68
2022/01/08 11:46:26;;;;;;;7.55;3.88;;;23.20;72.80;;;;;;6183760;28;88981;-69
2022/01/08 11:49:29;;;;;;;8.55;4.65;;;23.20;72.80;;;;;;6197355;28;89154;-69
2022/01/08 11:55:53;;;;;;;7.35;4.10;;;23.20;72.80;;;;;;6183521;28;86585;-69
2022/01/08 11:59:06;;;;;;;8.98;4.00;;;23.20;72.80;;;;;;6196060;28;87985;-69
2022/01/08 12:02:12;;;;;;;9.15;4.30;;;23.20;73.50;;;;;;6204625;28;89181;-69
2022/01/08 12:05:15;;;;;;;7.38;4.13;;;23.30;72.80;;;;;;6229908;28;90122;-69
2022/01/08 12:11:54;;;;;;;7.80;4.20;;;23.20;72.70;;;;;;6215240;28;86990;-68
2022/01/08 12:14:56;;;;;;;7.15;3.90;;;23.30;72.70;;;;;;6193766;28;88151;-69
2022/01/08 12:17:59;;;;;;;6.50;3.92;;;23.30;72.70;;;;;;6210501;28;89298;-69
2022/01/08 12:21:02;;;;;;;7.25;3.88;;;23.30;72.60;;;;;;6230007;28;88004;-69
2022/01/08 12:24:35;;;;;;;6.72;3.70;;;23.30;72.60;;;;;;6219847;28;89112;-69
2022/01/08 12:27:43;;;;;;;5.85;3.80;;;23.30;72.60;;;;;;6197703;28;88375;-68
2022/01/08 12:30:45;;;;;;;7.30;3.42;;;23.20;72.50;;;;;;6208903;28;90899;-69
2022/01/08 12:34:16;;;;;;;5.88;3.50;;;23.30;72.50;;;;;;6208293;28;88934;-67
2022/01/08 12:37:19;;;;;;;6.15;3.30;;;23.30;72.50;;;;;;6199837;28;89987;-69
2022/01/08 12:40:36;;;;;;;4.53;3.17;;;23.30;72.50;;;;;;6206048;28;89047;-69
2022/01/08 12:43:39;;;;;;;5.72;3.33;;;23.30;72.30;;;;;;6206420;28;89085;-69
2022/01/08 12:46:41;;;;;;;4.80;3.03;;;23.30;72.30;;;;;;6206814;28;89047;-69
2022/01/08 12:50:20;;;;;;;5.30;3.35;;;23.30;72.30;;;;;;6183505;28;89225;-68
2022/01/08 12:53:27;;;;;;;5.35;3.30;;;23.30;72.30;;;;;;6194124;28;87986;-69
2022/01/08 12:56:29;;;;;;;5.72;3.30;;;23.30;72.30;;;;;;6198792;28;89402;-69
2022/01/08 12:59:33;;;;;;;5.25;3.10;;;23.30;72.20;;;;;;6207276;28;88346;-68
2022/01/08 13:02:46;;;;;;;5.20;2.90;;;23.30;72.20;;;;;;6205262;28;88857;-69
2022/01/08 13:05:49;;;;;;;5.35;2.72;;;23.30;72.10;;;;;;6196573;28;89091;-69
2022/01/08 13:08:54;;;;;;;5.47;3.15;;;23.30;72.00;;;;;;6180297;28;90076;-69
2022/01/08 13:11:57;;;;;;;4.80;3.15;;;23.30;72.00;;;;;;6216732;28;89071;-69
2022/01/08 13:18:25;;;;;;;5.13;2.80;;;23.30;71.90;;;;;;6219832;28;87488;-68
2022/01/08 13:21:31;;;;;;;4.57;2.90;;;23.30;71.80;;;;;;6202636;28;89570;-69
2022/01/08 13:24:34;;;;;;;3.80;2.78;;;23.30;71.80;;;;;;6197988;28;91197;-69
2022/01/08 13:27:37;;;;;;;4.20;2.85;;;23.30;71.80;;;;;;6205605;28;90464;-68
2022/01/08 13:30:39;;;;;;;4.00;2.70;;;23.30;71.70;;;;;;6205988;28;88816;-69
2022/01/08 13:33:41;;;;;;;3.78;2.60;;;23.30;71.80;;;;;;6192908;28;89105;-69
2022/01/08 13:37:03;;;;;;;3.20;2.28;;;23.30;71.60;;;;;;6203009;28;89525;-68
2022/01/08 13:40:08;;;;;;;3.75;2.40;;;23.30;71.60;;;;;;6216631;28;90020;-69
2022/01/08 13:43:10;;;;;;;3.00;2.28;;;23.30;71.60;;;;;;6181425;28;89156;-69
2022/01/08 13:46:12;;;;;;;2.67;2.00;;;23.30;71.60;;;;;;6202873;28;89044;-68
2022/01/08 13:49:14;;;;;;;3.83;2.75;;;23.30;71.80;;;;;;6197226;28;89128;-69
2022/01/08 13:52:23;;;;;;;2.92;2.38;;;23.30;72.70;;;;;;6200800;28;89031;-69
2022/01/08 13:55:27;;;;;;;3.40;2.38;;;23.30;72.30;;;;;;6190576;28;88909;-69
2022/01/08 13:58:31;;;;;;;3.33;2.30;;;23.30;72.20;;;;;;6196727;28;89165;-68
2022/01/08 14:01:41;;;;;;;2.83;2.30;;;23.30;72.00;;;;;;6200418;28;88325;-68
2022/01/08 14:04:44;;;;;;;3.50;2.10;;;23.40;72.20;;;;;;6188981;28;89496;-69
2022/01/08 14:07:48;;;;;;;2.60;1.95;;;23.40;72.30;;;;;;6186996;28;87974;-68
2022/01/08 14:10:51;;;;;;;3.10;2.20;;;23.40;72.20;;;;;;6213800;28;90287;-69
2022/01/08 14:13:55;;;;;;;3.72;2.08;;;23.30;72.10;;;;;;6208789;28;89407;-68
2022/01/08 14:17:00;;;;;;;3.72;2.15;;;23.40;72.20;;;;;;6201722;28;89491;-68
2022/01/08 14:20:05;;;;;;;3.30;2.00;;;23.40;72.10;;;;;;6212269;28;89087;-69
2022/01/08 14:23:18;;;;;;;3.72;2.10;;;23.40;72.00;;;;;;6202573;28;89018;-70
2022/01/08 14:26:23;;;;;;;4.30;1.88;;;23.40;72.00;;;;;;6204034;28;87909;-69
2022/01/08 14:29:25;;;;;;;4.15;1.70;;;23.40;72.00;;;;;;6201348;28;89652;-68
2022/01/08 14:32:29;;;;;;;4.10;1.80;;;23.40;72.00;;;;;;6181209;28;88314;-68
2022/01/08 14:35:31;;;;;;;2.60;1.77;;;23.40;72.20;;;;;;6198450;28;88943;-67
2022/01/08 14:42:04;;;;;;;3.33;1.70;;;23.40;72.30;;;;;;6304847;27;80193;-68
2022/01/08 14:45:07;;;;;;;2.90;2.00;;;23.40;72.20;;;;;;6280457;27;82326;-68
2022/01/08 14:48:17;;;;;;;2.58;1.80;;;23.40;72.20;;;;;;6280005;27;81368;-69
2022/01/08 14:51:20;;;;;;;4.38;1.92;;;23.40;72.20;;;;;;6267622;27;82006;-70
2022/01/08 14:54:26;;;;;;;2.25;1.60;;;23.40;72.10;;;;;;6283151;27;82619;-70
2022/01/08 14:57:30;;;;;;;3.83;1.80;;;23.40;72.10;;;;;;6281969;27;82347;-70
2022/01/08 15:00:33;;;;;;;3.53;1.83;;;23.40;72.10;;;;;;6267435;27;81510;-70
2022/01/08 15:03:35;;;;;;;2.33;1.92;;;23.40;72.00;;;;;;6270535;27;82210;-69
2022/01/08 15:06:37;;;;;;;2.15;1.50;;;23.40;72.00;;;;;;6280357;27;82279;-70
2022/01/08 15:09:39;;;;;;;2.60;1.52;;;23.40;72.00;;;;;;6281657;27;82281;-70
2022/01/08 15:12:43;;;;;;;2.47;1.70;;;23.40;72.00;;;;;;6282913;27;82360;-70
2022/01/08 15:15:45;;;;;;;3.03;1.55;;;23.40;71.90;;;;;;6267069;27;82439;-70
2022/01/08 15:18:47;;;;;;;2.22;1.50;;;23.40;71.80;;;;;;6269456;27;82425;-70
2022/01/08 15:21:49;;;;;;;2.47;1.60;;;23.40;71.80;;;;;;6269366;27;82352;-69
2022/01/08 15:24:51;;;;;;;2.42;1.65;;;23.40;71.80;;;;;;6268414;27;82360;-70
2022/01/08 15:27:55;;;;;;;2.67;1.70;;;23.40;71.80;;;;;;6276017;27;82253;-70
2022/01/08 15:30:57;;;;;;;2.80;1.70;;;23.40;71.70;;;;;;6281296;27;82257;-70
2022/01/08 15:33:59;;;;;;;2.42;1.65;;;23.40;71.80;;;;;;6282273;27;81778;-71
2022/01/08 15:37:01;;;;;;;1.63;1.40;;;23.40;71.70;;;;;;6280509;27;82587;-69
2022/01/08 15:40:04;;;;;;;2.17;1.50;;;23.40;71.70;;;;;;6280078;27;82233;-70
2022/01/08 15:43:08;;;;;;;2.20;1.60;;;23.40;71.60;;;;;;6280510;27;81946;-69
2022/01/08 15:46:10;;;;;;;1.83;1.50;;;23.40;71.60;;;;;;6279868;27;82389;-70
2022/01/08 15:49:13;;;;;;;1.80;1.50;;;23.40;71.60;;;;;;6274305;27;82291;-70
2022/01/08 15:52:15;;;;;;;1.95;1.40;;;23.40;71.60;;;;;;6259074;27;82157;-69
2022/01/08 15:55:18;;;;;;;2.20;1.50;;;23.40;71.50;;;;;;6244955;28;82153;-70
2022/01/08 15:58:21;;;;;;;2.30;1.42;;;23.40;71.50;;;;;;6264406;27;82812;-69
2022/01/08 16:01:24;;;;;;;1.80;1.35;;;23.40;71.50;;;;;;6263093;28;82242;-69
2022/01/08 16:04:26;;;;;;;1.45;1.35;;;23.40;71.50;;;;;;6261453;28;82414;-69
2022/01/08 16:07:28;;;;;;;1.55;1.30;;;23.40;71.50;;;;;;6238312;28;82401;-70
2022/01/08 16:10:30;;;;;;;2.15;1.42;;;23.40;71.50;;;;;;6250179;28;82216;-69
2022/01/08 16:13:34;;;;;;;1.52;1.25;;;23.40;71.40;;;;;;6262932;28;82286;-70
2022/01/08 16:16:36;;;;;;;1.58;1.33;;;23.40;71.30;;;;;;6265024;28;81165;-70
2022/01/08 16:19:38;;;;;;;1.83;1.30;;;23.40;72.20;;;;;;6247822;28;82368;-70
2022/01/08 16:22:41;;;;;;;2.28;1.50;;;23.40;71.30;;;;;;6263740;27;82650;-69
2022/01/08 16:25:43;;;;;;;1.45;1.35;;;23.40;71.30;;;;;;6252709;27;82928;-69
2022/01/08 16:28:47;;;;;;;1.50;1.33;;;23.50;71.30;;;;;;6262999;28;82327;-69